sensor_id;sensor_type;location;lat;lon;timestamp;P1;durP1;ratioP1;P2;durP2;ratioP2
75499;SDS011;64076;51.466;7.260;2023-10-13T00:01:56;11.23;;;9.25;;
75499;SDS011;64076;51.466;7.260;2023-10-13T00:04:26;11.43;;;9.10;;
75499;SDS011;64076;51.466;7.260;2023-10-13T00:06:53;11.87;;;8.90;;
75499;SDS011;64076;51.466;7.260;2023-10-13T00:09:21;11.70;;;9.15;;
75499;SDS011;64076;51.466;7.260;2023-10-13T00:11:50;12.23;;;9.18;;
75499;SDS011;64076;51.466;7.260;2023-10-13T00:14:17;12.57;;;9.63;;
75499;SDS011;64076;51.466;7.260;2023-10-13T00:16:45;11.27;;;9.15;;
75499;SDS011;64076;51.466;7.260;2023-10-13T00:19:26;10.93;;;8.70;;
75499;SDS011;64076;51.466;7.260;2023-10-13T00:21:52;11.75;;;9.43;;
75499;SDS011;64076;51.466;7.260;2023-10-13T00:24:21;10.98;;;8.63;;
75499;SDS011;64076;51.466;7.260;2023-10-13T00:26:54;13.85;;;9.73;;
75499;SDS011;64076;51.466;7.260;2023-10-13T00:29:20;11.87;;;9.03;;
75499;SDS011;64076;51.466;7.260;2023-10-13T00:31:57;12.23;;;9.38;;
75499;SDS011;64076;51.466;7.260;2023-10-13T00:34:23;11.63;;;9.52;;
75499;SDS011;64076;51.466;7.260;2023-10-13T00:36:57;11.65;;;9.50;;
75499;SDS011;64076;51.466;7.260;2023-10-13T00:39:37;12.13;;;9.15;;
75499;SDS011;64076;51.466;7.260;2023-10-13T00:42:09;10.33;;;8.57;;
75499;SDS011;64076;51.466;7.260;2023-10-13T00:44:43;11.52;;;8.90;;
75499;SDS011;64076;51.466;7.260;2023-10-13T00:47:13;11.38;;;8.88;;
75499;SDS011;64076;51.466;7.260;2023-10-13T00:49:44;11.40;;;8.75;;
75499;SDS011;64076;51.466;7.260;2023-10-13T00:52:13;11.07;;;8.85;;
75499;SDS011;64076;51.466;7.260;2023-10-13T00:54:40;10.20;;;8.70;;
75499;SDS011;64076;51.466;7.260;2023-10-13T00:57:07;11.95;;;9.40;;
75499;SDS011;64076;51.466;7.260;2023-10-13T00:59:51;11.55;;;9.43;;
75499;SDS011;64076;51.466;7.260;2023-10-13T01:02:18;11.63;;;9.18;;
75499;SDS011;64076;51.466;7.260;2023-10-13T01:05:06;10.63;;;8.48;;
75499;SDS011;64076;51.466;7.260;2023-10-13T01:07:36;10.60;;;8.90;;
75499;SDS011;64076;51.466;7.260;2023-10-13T01:10:02;12.38;;;9.15;;
75499;SDS011;64076;51.466;7.260;2023-10-13T01:12:29;10.93;;;8.68;;
75499;SDS011;64076;51.466;7.260;2023-10-13T01:14:56;11.82;;;9.07;;
75499;SDS011;64076;51.466;7.260;2023-10-13T01:17:22;11.93;;;9.57;;
75499;SDS011;64076;51.466;7.260;2023-10-13T01:19:49;11.67;;;9.53;;
75499;SDS011;64076;51.466;7.260;2023-10-13T01:22:15;12.27;;;8.93;;
75499;SDS011;64076;51.466;7.260;2023-10-13T01:24:40;11.82;;;9.20;;
75499;SDS011;64076;51.466;7.260;2023-10-13T01:27:07;12.50;;;9.35;;
75499;SDS011;64076;51.466;7.260;2023-10-13T01:29:44;11.40;;;8.70;;
75499;SDS011;64076;51.466;7.260;2023-10-13T01:32:14;11.18;;;8.98;;
75499;SDS011;64076;51.466;7.260;2023-10-13T01:34:40;11.75;;;8.98;;
75499;SDS011;64076;51.466;7.260;2023-10-13T01:37:11;9.63;;;8.63;;
75499;SDS011;64076;51.466;7.260;2023-10-13T01:39:37;12.65;;;9.13;;
75499;SDS011;64076;51.466;7.260;2023-10-13T01:42:02;11.03;;;8.83;;
75499;SDS011;64076;51.466;7.260;2023-10-13T01:44:29;12.10;;;8.98;;
75499;SDS011;64076;51.466;7.260;2023-10-13T01:46:58;10.80;;;8.85;;
75499;SDS011;64076;51.466;7.260;2023-10-13T01:49:25;10.82;;;8.63;;
75499;SDS011;64076;51.466;7.260;2023-10-13T01:51:51;11.43;;;8.45;;
75499;SDS011;64076;51.466;7.260;2023-10-13T01:54:17;12.97;;;9.73;;
75499;SDS011;64076;51.466;7.260;2023-10-13T01:56:43;12.13;;;8.85;;
75499;SDS011;64076;51.466;7.260;2023-10-13T01:59:12;10.52;;;8.75;;
75499;SDS011;64076;51.466;7.260;2023-10-13T02:01:38;12.13;;;8.95;;
75499;SDS011;64076;51.466;7.260;2023-10-13T02:04:06;12.23;;;9.32;;
75499;SDS011;64076;51.466;7.260;2023-10-13T02:06:32;10.07;;;8.80;;
75499;SDS011;64076;51.466;7.260;2023-10-13T02:09:02;12.10;;;8.63;;
75499;SDS011;64076;51.466;7.260;2023-10-13T02:11:36;12.77;;;8.60;;
75499;SDS011;64076;51.466;7.260;2023-10-13T02:14:02;11.20;;;8.70;;
75499;SDS011;64076;51.466;7.260;2023-10-13T02:16:28;10.73;;;8.93;;
75499;SDS011;64076;51.466;7.260;2023-10-13T02:18:56;12.00;;;8.60;;
75499;SDS011;64076;51.466;7.260;2023-10-13T02:21:28;11.35;;;8.75;;
75499;SDS011;64076;51.466;7.260;2023-10-13T02:23:57;11.65;;;8.85;;
75499;SDS011;64076;51.466;7.260;2023-10-13T02:26:29;11.88;;;9.20;;
75499;SDS011;64076;51.466;7.260;2023-10-13T02:28:57;11.80;;;8.77;;
75499;SDS011;64076;51.466;7.260;2023-10-13T02:31:23;10.87;;;9.03;;
75499;SDS011;64076;51.466;7.260;2023-10-13T02:33:49;11.48;;;8.93;;
75499;SDS011;64076;51.466;7.260;2023-10-13T02:36:15;11.32;;;8.40;;
75499;SDS011;64076;51.466;7.260;2023-10-13T02:38:47;12.50;;;8.60;;
75499;SDS011;64076;51.466;7.260;2023-10-13T02:41:16;11.80;;;8.25;;
75499;SDS011;64076;51.466;7.260;2023-10-13T02:43:51;11.80;;;8.30;;
75499;SDS011;64076;51.466;7.260;2023-10-13T02:46:18;10.95;;;8.60;;
75499;SDS011;64076;51.466;7.260;2023-10-13T02:48:46;11.73;;;8.32;;
75499;SDS011;64076;51.466;7.260;2023-10-13T02:51:18;10.27;;;8.70;;
75499;SDS011;64076;51.466;7.260;2023-10-13T02:53:46;11.50;;;8.85;;
75499;SDS011;64076;51.466;7.260;2023-10-13T02:56:18;11.13;;;8.53;;
75499;SDS011;64076;51.466;7.260;2023-10-13T02:58:48;10.10;;;8.15;;
75499;SDS011;64076;51.466;7.260;2023-10-13T03:01:35;9.90;;;7.85;;
75499;SDS011;64076;51.466;7.260;2023-10-13T03:04:02;9.57;;;8.13;;
75499;SDS011;64076;51.466;7.260;2023-10-13T03:06:28;10.63;;;8.13;;
75499;SDS011;64076;51.466;7.260;2023-10-13T03:08:58;9.70;;;8.03;;
75499;SDS011;64076;51.466;7.260;2023-10-13T03:11:38;11.32;;;8.63;;
75499;SDS011;64076;51.466;7.260;2023-10-13T03:14:07;10.70;;;8.30;;
75499;SDS011;64076;51.466;7.260;2023-10-13T03:16:33;11.38;;;8.73;;
75499;SDS011;64076;51.466;7.260;2023-10-13T03:18:59;10.63;;;8.65;;
75499;SDS011;64076;51.466;7.260;2023-10-13T03:21:25;11.73;;;8.37;;
75499;SDS011;64076;51.466;7.260;2023-10-13T03:23:57;10.93;;;8.38;;
75499;SDS011;64076;51.466;7.260;2023-10-13T03:26:30;12.20;;;8.95;;
75499;SDS011;64076;51.466;7.260;2023-10-13T03:29:00;10.32;;;8.93;;
75499;SDS011;64076;51.466;7.260;2023-10-13T03:31:33;11.10;;;8.57;;
75499;SDS011;64076;51.466;7.260;2023-10-13T03:34:02;9.55;;;8.00;;
75499;SDS011;64076;51.466;7.260;2023-10-13T03:36:29;10.40;;;8.35;;
75499;SDS011;64076;51.466;7.260;2023-10-13T03:39:13;10.23;;;8.50;;
75499;SDS011;64076;51.466;7.260;2023-10-13T03:41:39;11.65;;;8.48;;
75499;SDS011;64076;51.466;7.260;2023-10-13T03:44:06;10.97;;;8.07;;
75499;SDS011;64076;51.466;7.260;2023-10-13T03:46:42;10.07;;;7.88;;
75499;SDS011;64076;51.466;7.260;2023-10-13T03:49:10;10.15;;;8.02;;
75499;SDS011;64076;51.466;7.260;2023-10-13T03:51:40;10.27;;;8.10;;
75499;SDS011;64076;51.466;7.260;2023-10-13T03:54:07;9.35;;;7.78;;
75499;SDS011;64076;51.466;7.260;2023-10-13T03:56:34;13.70;;;8.03;;
75499;SDS011;64076;51.466;7.260;2023-10-13T03:59:03;10.57;;;8.25;;
75499;SDS011;64076;51.466;7.260;2023-10-13T04:01:38;11.32;;;8.18;;
75499;SDS011;64076;51.466;7.260;2023-10-13T04:04:22;10.80;;;8.07;;
75499;SDS011;64076;51.466;7.260;2023-10-13T04:06:59;10.25;;;8.27;;
75499;SDS011;64076;51.466;7.260;2023-10-13T04:09:37;9.50;;;8.10;;
75499;SDS011;64076;51.466;7.260;2023-10-13T04:12:05;10.23;;;8.18;;
75499;SDS011;64076;51.466;7.260;2023-10-13T04:14:31;9.57;;;7.95;;
75499;SDS011;64076;51.466;7.260;2023-10-13T04:17:16;9.65;;;8.02;;
75499;SDS011;64076;51.466;7.260;2023-10-13T04:19:51;9.20;;;7.78;;
75499;SDS011;64076;51.466;7.260;2023-10-13T04:22:32;10.03;;;8.10;;
75499;SDS011;64076;51.466;7.260;2023-10-13T04:25:13;9.48;;;7.60;;
75499;SDS011;64076;51.466;7.260;2023-10-13T04:27:58;8.68;;;7.10;;
75499;SDS011;64076;51.466;7.260;2023-10-13T04:33:18;10.23;;;7.88;;
75499;SDS011;64076;51.466;7.260;2023-10-13T04:36:02;10.37;;;7.93;;
75499;SDS011;64076;51.466;7.260;2023-10-13T04:38:38;11.90;;;8.05;;
75499;SDS011;64076;51.466;7.260;2023-10-13T04:41:17;10.18;;;7.95;;
75499;SDS011;64076;51.466;7.260;2023-10-13T04:43:47;10.57;;;7.93;;
75499;SDS011;64076;51.466;7.260;2023-10-13T04:46:29;11.15;;;8.25;;
75499;SDS011;64076;51.466;7.260;2023-10-13T04:49:22;9.40;;;7.73;;
75499;SDS011;64076;51.466;7.260;2023-10-13T04:51:58;10.63;;;8.63;;
75499;SDS011;64076;51.466;7.260;2023-10-13T04:54:27;9.65;;;8.05;;
75499;SDS011;64076;51.466;7.260;2023-10-13T04:57:13;10.48;;;7.90;;
75499;SDS011;64076;51.466;7.260;2023-10-13T05:00:00;10.60;;;8.15;;
75499;SDS011;64076;51.466;7.260;2023-10-13T05:02:36;9.73;;;7.57;;
75499;SDS011;64076;51.466;7.260;2023-10-13T05:05:07;9.98;;;7.53;;
75499;SDS011;64076;51.466;7.260;2023-10-13T05:07:46;9.70;;;8.00;;
75499;SDS011;64076;51.466;7.260;2023-10-13T05:10:32;11.30;;;8.30;;
75499;SDS011;64076;51.466;7.260;2023-10-13T05:13:17;11.02;;;8.32;;
75499;SDS011;64076;51.466;7.260;2023-10-13T05:16:01;8.37;;;6.87;;
75499;SDS011;64076;51.466;7.260;2023-10-13T05:18:46;7.97;;;6.03;;
75499;SDS011;64076;51.466;7.260;2023-10-13T05:21:30;6.30;;;5.47;;
75499;SDS011;64076;51.466;7.260;2023-10-13T05:24:15;7.18;;;5.05;;
75499;SDS011;64076;51.466;7.260;2023-10-13T05:26:59;6.65;;;5.07;;
75499;SDS011;64076;51.466;7.260;2023-10-13T05:29:44;6.70;;;5.03;;
75499;SDS011;64076;51.466;7.260;2023-10-13T05:32:29;4.95;;;4.43;;
75499;SDS011;64076;51.466;7.260;2023-10-13T05:35:16;5.20;;;4.22;;
75499;SDS011;64076;51.466;7.260;2023-10-13T05:38:01;5.22;;;3.95;;
75499;SDS011;64076;51.466;7.260;2023-10-13T05:43:37;4.73;;;3.73;;
75499;SDS011;64076;51.466;7.260;2023-10-13T05:46:21;4.20;;;3.40;;
75499;SDS011;64076;51.466;7.260;2023-10-13T05:48:50;4.43;;;3.53;;
75499;SDS011;64076;51.466;7.260;2023-10-13T05:51:22;4.25;;;3.00;;
75499;SDS011;64076;51.466;7.260;2023-10-13T05:53:57;3.85;;;3.25;;
75499;SDS011;64076;51.466;7.260;2023-10-13T05:56:42;4.13;;;2.80;;
75499;SDS011;64076;51.466;7.260;2023-10-13T05:59:27;3.72;;;2.70;;
75499;SDS011;64076;51.466;7.260;2023-10-13T06:02:12;3.80;;;2.72;;
75499;SDS011;64076;51.466;7.260;2023-10-13T06:04:57;3.60;;;2.60;;
75499;SDS011;64076;51.466;7.260;2023-10-13T06:07:41;3.45;;;2.42;;
75499;SDS011;64076;51.466;7.260;2023-10-13T06:10:26;3.67;;;2.60;;
75499;SDS011;64076;51.466;7.260;2023-10-13T06:13:10;3.20;;;2.30;;
75499;SDS011;64076;51.466;7.260;2023-10-13T06:15:55;3.00;;;2.53;;
75499;SDS011;64076;51.466;7.260;2023-10-13T06:18:39;3.25;;;2.42;;
75499;SDS011;64076;51.466;7.260;2023-10-13T06:21:24;3.40;;;2.38;;
75499;SDS011;64076;51.466;7.260;2023-10-13T06:24:09;3.03;;;2.23;;
75499;SDS011;64076;51.466;7.260;2023-10-13T06:26:53;3.20;;;2.40;;
75499;SDS011;64076;51.466;7.260;2023-10-13T06:29:38;2.80;;;2.10;;
75499;SDS011;64076;51.466;7.260;2023-10-13T06:32:04;2.47;;;2.00;;
75499;SDS011;64076;51.466;7.260;2023-10-13T06:34:38;2.60;;;1.92;;
75499;SDS011;64076;51.466;7.260;2023-10-13T06:37:13;2.97;;;1.90;;
75499;SDS011;64076;51.466;7.260;2023-10-13T06:39:56;2.55;;;2.10;;
75499;SDS011;64076;51.466;7.260;2023-10-13T06:42:25;3.78;;;2.20;;
75499;SDS011;64076;51.466;7.260;2023-10-13T06:44:55;2.88;;;2.00;;
75499;SDS011;64076;51.466;7.260;2023-10-13T06:47:24;2.63;;;2.05;;
75499;SDS011;64076;51.466;7.260;2023-10-13T06:49:50;2.70;;;1.90;;
75499;SDS011;64076;51.466;7.260;2023-10-13T06:52:19;2.38;;;1.95;;
75499;SDS011;64076;51.466;7.260;2023-10-13T06:54:49;2.78;;;1.73;;
75499;SDS011;64076;51.466;7.260;2023-10-13T06:57:15;3.08;;;2.08;;
75499;SDS011;64076;51.466;7.260;2023-10-13T06:59:48;2.53;;;1.77;;
75499;SDS011;64076;51.466;7.260;2023-10-13T07:02:16;2.30;;;1.63;;
75499;SDS011;64076;51.466;7.260;2023-10-13T07:04:49;2.45;;;1.95;;
75499;SDS011;64076;51.466;7.260;2023-10-13T07:07:36;2.40;;;1.90;;
75499;SDS011;64076;51.466;7.260;2023-10-13T07:10:03;2.08;;;1.50;;
75499;SDS011;64076;51.466;7.260;2023-10-13T07:12:32;2.30;;;1.80;;
75499;SDS011;64076;51.466;7.260;2023-10-13T07:14:58;2.30;;;1.60;;
75499;SDS011;64076;51.466;7.260;2023-10-13T07:17:35;2.70;;;1.73;;
75499;SDS011;64076;51.466;7.260;2023-10-13T07:20:04;2.28;;;1.80;;
75499;SDS011;64076;51.466;7.260;2023-10-13T07:22:41;2.47;;;1.73;;
75499;SDS011;64076;51.466;7.260;2023-10-13T07:25:19;2.70;;;1.80;;
75499;SDS011;64076;51.466;7.260;2023-10-13T07:27:49;2.93;;;2.13;;
75499;SDS011;64076;51.466;7.260;2023-10-13T07:30:15;2.70;;;2.05;;
75499;SDS011;64076;51.466;7.260;2023-10-13T07:32:45;2.40;;;1.80;;
75499;SDS011;64076;51.466;7.260;2023-10-13T07:35:11;2.90;;;2.15;;
75499;SDS011;64076;51.466;7.260;2023-10-13T07:37:37;2.30;;;1.80;;
75499;SDS011;64076;51.466;7.260;2023-10-13T07:40:08;2.67;;;2.10;;
75499;SDS011;64076;51.466;7.260;2023-10-13T07:42:49;2.80;;;1.83;;
75499;SDS011;64076;51.466;7.260;2023-10-13T07:45:24;2.17;;;1.77;;
75499;SDS011;64076;51.466;7.260;2023-10-13T07:47:51;2.25;;;1.80;;
75499;SDS011;64076;51.466;7.260;2023-10-13T07:50:17;2.97;;;2.03;;
75499;SDS011;64076;51.466;7.260;2023-10-13T07:52:52;2.70;;;1.90;;
75499;SDS011;64076;51.466;7.260;2023-10-13T07:55:30;2.65;;;1.95;;
75499;SDS011;64076;51.466;7.260;2023-10-13T07:58:04;2.83;;;2.10;;
75499;SDS011;64076;51.466;7.260;2023-10-13T08:00:32;3.10;;;1.90;;
75499;SDS011;64076;51.466;7.260;2023-10-13T08:03:11;3.40;;;1.90;;
75499;SDS011;64076;51.466;7.260;2023-10-13T08:05:43;2.57;;;1.77;;
75499;SDS011;64076;51.466;7.260;2023-10-13T08:08:28;2.83;;;1.95;;
75499;SDS011;64076;51.466;7.260;2023-10-13T08:13:59;2.75;;;1.92;;
75499;SDS011;64076;51.466;7.260;2023-10-13T08:16:31;2.30;;;1.70;;
75499;SDS011;64076;51.466;7.260;2023-10-13T08:19:12;2.10;;;1.70;;
75499;SDS011;64076;51.466;7.260;2023-10-13T08:21:46;3.00;;;2.15;;
75499;SDS011;64076;51.466;7.260;2023-10-13T08:24:22;2.80;;;2.25;;
75499;SDS011;64076;51.466;7.260;2023-10-13T08:27:11;3.28;;;2.10;;
75499;SDS011;64076;51.466;7.260;2023-10-13T08:29:52;3.67;;;2.17;;
75499;SDS011;64076;51.466;7.260;2023-10-13T08:32:24;2.60;;;2.03;;
75499;SDS011;64076;51.466;7.260;2023-10-13T08:34:54;2.95;;;1.80;;
75499;SDS011;64076;51.466;7.260;2023-10-13T08:37:20;2.42;;;1.70;;
75499;SDS011;64076;51.466;7.260;2023-10-13T08:39:46;2.92;;;1.60;;
75499;SDS011;64076;51.466;7.260;2023-10-13T08:47:59;2.80;;;1.90;;
75499;SDS011;64076;51.466;7.260;2023-10-13T08:53:23;2.45;;;1.67;;
75499;SDS011;64076;51.466;7.260;2023-10-13T08:56:06;2.42;;;1.77;;
75499;SDS011;64076;51.466;7.260;2023-10-13T08:58:39;2.67;;;1.70;;
75499;SDS011;64076;51.466;7.260;2023-10-13T09:01:24;2.92;;;1.77;;
75499;SDS011;64076;51.466;7.260;2023-10-13T09:04:07;2.83;;;1.90;;
75499;SDS011;64076;51.466;7.260;2023-10-13T09:07:08;2.40;;;1.83;;
75499;SDS011;64076;51.466;7.260;2023-10-13T09:12:12;2.70;;;1.80;;
75499;SDS011;64076;51.466;7.260;2023-10-13T09:14:41;2.50;;;1.85;;
75499;SDS011;64076;51.466;7.260;2023-10-13T09:17:12;2.97;;;1.95;;
75499;SDS011;64076;51.466;7.260;2023-10-13T09:19:51;3.13;;;2.00;;
75499;SDS011;64076;51.466;7.260;2023-10-13T09:22:27;2.90;;;1.90;;
75499;SDS011;64076;51.466;7.260;2023-10-13T09:24:55;2.87;;;1.90;;
75499;SDS011;64076;51.466;7.260;2023-10-13T09:27:24;3.53;;;1.80;;
75499;SDS011;64076;51.466;7.260;2023-10-13T09:29:57;2.33;;;1.80;;
75499;SDS011;64076;51.466;7.260;2023-10-13T09:32:35;2.85;;;2.00;;
75499;SDS011;64076;51.466;7.260;2023-10-13T09:35:19;2.65;;;1.90;;
75499;SDS011;64076;51.466;7.260;2023-10-13T09:37:52;2.73;;;1.77;;
75499;SDS011;64076;51.466;7.260;2023-10-13T09:40:29;2.67;;;1.80;;
75499;SDS011;64076;51.466;7.260;2023-10-13T09:43:13;3.08;;;2.08;;
75499;SDS011;64076;51.466;7.260;2023-10-13T09:45:42;2.88;;;1.83;;
75499;SDS011;64076;51.466;7.260;2023-10-13T09:48:22;3.00;;;2.15;;
75499;SDS011;64076;51.466;7.260;2023-10-13T09:50:53;2.60;;;1.90;;
75499;SDS011;64076;51.466;7.260;2023-10-13T09:53:24;2.45;;;1.63;;
75499;SDS011;64076;51.466;7.260;2023-10-13T09:55:54;2.80;;;2.03;;
75499;SDS011;64076;51.466;7.260;2023-10-13T09:58:25;3.03;;;2.08;;
75499;SDS011;64076;51.466;7.260;2023-10-13T10:01:02;2.75;;;2.00;;
75499;SDS011;64076;51.466;7.260;2023-10-13T10:03:45;3.57;;;2.03;;
75499;SDS011;64076;51.466;7.260;2023-10-13T10:06:30;2.92;;;2.00;;
75499;SDS011;64076;51.466;7.260;2023-10-13T10:09:07;2.63;;;1.80;;
75499;SDS011;64076;51.466;7.260;2023-10-13T10:14:15;3.33;;;2.00;;
75499;SDS011;64076;51.466;7.260;2023-10-13T10:19:27;3.28;;;2.40;;
75499;SDS011;64076;51.466;7.260;2023-10-13T10:22:02;4.47;;;2.20;;
75499;SDS011;64076;51.466;7.260;2023-10-13T10:24:55;3.22;;;2.28;;
75499;SDS011;64076;51.466;7.260;2023-10-13T10:27:26;3.58;;;2.20;;
75499;SDS011;64076;51.466;7.260;2023-10-13T10:29:54;3.03;;;2.00;;
75499;SDS011;64076;51.466;7.260;2023-10-13T10:32:20;3.30;;;2.35;;
75499;SDS011;64076;51.466;7.260;2023-10-13T10:34:46;3.72;;;2.47;;
75499;SDS011;64076;51.466;7.260;2023-10-13T10:37:13;3.33;;;2.22;;
75499;SDS011;64076;51.466;7.260;2023-10-13T10:39:39;3.50;;;2.35;;
75499;SDS011;64076;51.466;7.260;2023-10-13T10:42:12;3.67;;;2.47;;
75499;SDS011;64076;51.466;7.260;2023-10-13T10:44:49;3.55;;;2.45;;
75499;SDS011;64076;51.466;7.260;2023-10-13T10:47:20;3.63;;;2.45;;
75499;SDS011;64076;51.466;7.260;2023-10-13T10:49:57;3.30;;;2.35;;
75499;SDS011;64076;51.466;7.260;2023-10-13T10:52:25;3.00;;;2.42;;
75499;SDS011;64076;51.466;7.260;2023-10-13T10:54:59;3.67;;;2.47;;
75499;SDS011;64076;51.466;7.260;2023-10-13T10:57:25;3.10;;;2.28;;
75499;SDS011;64076;51.466;7.260;2023-10-13T11:00:02;3.20;;;2.30;;
75499;SDS011;64076;51.466;7.260;2023-10-13T11:02:37;3.17;;;2.20;;
75499;SDS011;64076;51.466;7.260;2023-10-13T11:05:03;4.20;;;2.47;;
75499;SDS011;64076;51.466;7.260;2023-10-13T11:07:35;3.20;;;2.43;;
75499;SDS011;64076;51.466;7.260;2023-10-13T11:10:08;3.40;;;2.50;;
75499;SDS011;64076;51.466;7.260;2023-10-13T11:12:42;3.83;;;2.60;;
75499;SDS011;64076;51.466;7.260;2023-10-13T11:15:19;3.55;;;2.60;;
75499;SDS011;64076;51.466;7.260;2023-10-13T11:17:50;3.30;;;2.30;;
75499;SDS011;64076;51.466;7.260;2023-10-13T11:20:20;3.83;;;2.70;;
75499;SDS011;64076;51.466;7.260;2023-10-13T11:23:12;4.18;;;2.90;;
75499;SDS011;64076;51.466;7.260;2023-10-13T11:25:38;3.08;;;2.42;;
75499;SDS011;64076;51.466;7.260;2023-10-13T11:28:14;3.45;;;2.58;;
75499;SDS011;64076;51.466;7.260;2023-10-13T11:30:56;3.55;;;2.80;;
75499;SDS011;64076;51.466;7.260;2023-10-13T11:33:32;3.50;;;2.67;;
75499;SDS011;64076;51.466;7.260;2023-10-13T11:35:58;4.22;;;3.05;;
75499;SDS011;64076;51.466;7.260;2023-10-13T11:38:38;3.70;;;2.88;;
75499;SDS011;64076;51.466;7.260;2023-10-13T11:41:14;4.15;;;2.90;;
75499;SDS011;64076;51.466;7.260;2023-10-13T11:43:44;3.88;;;3.00;;
75499;SDS011;64076;51.466;7.260;2023-10-13T11:46:17;3.87;;;2.70;;
75499;SDS011;64076;51.466;7.260;2023-10-13T11:49:10;3.63;;;2.78;;
75499;SDS011;64076;51.466;7.260;2023-10-13T11:51:52;3.70;;;2.70;;
75499;SDS011;64076;51.466;7.260;2023-10-13T11:54:27;3.63;;;3.00;;
75499;SDS011;64076;51.466;7.260;2023-10-13T11:56:53;3.85;;;2.83;;
75499;SDS011;64076;51.466;7.260;2023-10-13T11:59:23;3.77;;;3.00;;
75499;SDS011;64076;51.466;7.260;2023-10-13T12:01:58;3.70;;;2.78;;
75499;SDS011;64076;51.466;7.260;2023-10-13T12:04:56;3.40;;;2.90;;
75499;SDS011;64076;51.466;7.260;2023-10-13T12:07:24;3.60;;;2.80;;
75499;SDS011;64076;51.466;7.260;2023-10-13T12:10:10;3.88;;;2.70;;
75499;SDS011;64076;51.466;7.260;2023-10-13T12:12:58;3.67;;;2.60;;
75499;SDS011;64076;51.466;7.260;2023-10-13T12:15:30;3.95;;;2.83;;
75499;SDS011;64076;51.466;7.260;2023-10-13T12:18:02;3.67;;;2.90;;
75499;SDS011;64076;51.466;7.260;2023-10-13T12:20:28;3.80;;;2.90;;
75499;SDS011;64076;51.466;7.260;2023-10-13T12:22:58;3.60;;;2.90;;
75499;SDS011;64076;51.466;7.260;2023-10-13T12:25:34;4.10;;;2.70;;
75499;SDS011;64076;51.466;7.260;2023-10-13T12:28:09;3.97;;;3.05;;
75499;SDS011;64076;51.466;7.260;2023-10-13T12:30:46;3.92;;;3.00;;
75499;SDS011;64076;51.466;7.260;2023-10-13T12:33:21;4.15;;;2.90;;
75499;SDS011;64076;51.466;7.260;2023-10-13T12:35:59;4.68;;;2.97;;
75499;SDS011;64076;51.466;7.260;2023-10-13T12:38:36;4.10;;;2.73;;
75499;SDS011;64076;51.466;7.260;2023-10-13T12:41:19;3.88;;;2.83;;
75499;SDS011;64076;51.466;7.260;2023-10-13T12:44:04;3.40;;;2.85;;
75499;SDS011;64076;51.466;7.260;2023-10-13T12:46:50;4.43;;;2.90;;
75499;SDS011;64076;51.466;7.260;2023-10-13T12:49:35;3.38;;;2.78;;
75499;SDS011;64076;51.466;7.260;2023-10-13T12:52:07;4.20;;;2.80;;
75499;SDS011;64076;51.466;7.260;2023-10-13T12:54:43;3.80;;;2.85;;
75499;SDS011;64076;51.466;7.260;2023-10-13T12:57:19;3.95;;;2.78;;
75499;SDS011;64076;51.466;7.260;2023-10-13T12:59:48;3.67;;;2.85;;
75499;SDS011;64076;51.466;7.260;2023-10-13T13:02:14;3.60;;;2.90;;
75499;SDS011;64076;51.466;7.260;2023-10-13T13:04:41;3.80;;;3.00;;
75499;SDS011;64076;51.466;7.260;2023-10-13T13:07:13;3.63;;;2.80;;
75499;SDS011;64076;51.466;7.260;2023-10-13T13:09:40;4.10;;;3.20;;
75499;SDS011;64076;51.466;7.260;2023-10-13T13:12:06;3.60;;;2.72;;
75499;SDS011;64076;51.466;7.260;2023-10-13T13:14:37;3.50;;;2.57;;
75499;SDS011;64076;51.466;7.260;2023-10-13T13:17:06;3.92;;;2.70;;
75499;SDS011;64076;51.466;7.260;2023-10-13T13:19:36;3.80;;;2.90;;
75499;SDS011;64076;51.466;7.260;2023-10-13T13:22:07;3.47;;;2.63;;
75499;SDS011;64076;51.466;7.260;2023-10-13T13:24:39;3.60;;;2.90;;
75499;SDS011;64076;51.466;7.260;2023-10-13T13:27:11;3.63;;;2.60;;
75499;SDS011;64076;51.466;7.260;2023-10-13T13:29:42;3.80;;;2.80;;
75499;SDS011;64076;51.466;7.260;2023-10-13T13:32:08;3.67;;;2.70;;
75499;SDS011;64076;51.466;7.260;2023-10-13T13:34:48;4.18;;;2.92;;
75499;SDS011;64076;51.466;7.260;2023-10-13T13:37:30;3.80;;;2.90;;
75499;SDS011;64076;51.466;7.260;2023-10-13T13:39:56;4.10;;;3.03;;
75499;SDS011;64076;51.466;7.260;2023-10-13T13:42:39;4.20;;;2.88;;
75499;SDS011;64076;51.466;7.260;2023-10-13T13:45:06;3.72;;;2.97;;
75499;SDS011;64076;51.466;7.260;2023-10-13T13:47:33;3.92;;;2.90;;
75499;SDS011;64076;51.466;7.260;2023-10-13T13:49:59;3.92;;;2.72;;
75499;SDS011;64076;51.466;7.260;2023-10-13T13:52:30;4.80;;;2.90;;
75499;SDS011;64076;51.466;7.260;2023-10-13T13:55:10;4.15;;;2.90;;
75499;SDS011;64076;51.466;7.260;2023-10-13T13:57:42;3.63;;;2.60;;
75499;SDS011;64076;51.466;7.260;2023-10-13T14:00:08;3.53;;;2.47;;
75499;SDS011;64076;51.466;7.260;2023-10-13T14:02:41;3.95;;;2.63;;
75499;SDS011;64076;51.466;7.260;2023-10-13T14:05:12;3.70;;;2.63;;
75499;SDS011;64076;51.466;7.260;2023-10-13T14:07:40;4.07;;;2.67;;
75499;SDS011;64076;51.466;7.260;2023-10-13T14:10:07;4.07;;;3.00;;
75499;SDS011;64076;51.466;7.260;2023-10-13T14:12:41;4.00;;;2.65;;
75499;SDS011;64076;51.466;7.260;2023-10-13T14:15:10;3.35;;;2.63;;
75499;SDS011;64076;51.466;7.260;2023-10-13T14:17:47;3.43;;;2.80;;
75499;SDS011;64076;51.466;7.260;2023-10-13T14:20:14;3.60;;;2.80;;
75499;SDS011;64076;51.466;7.260;2023-10-13T14:22:43;3.90;;;2.83;;
75499;SDS011;64076;51.466;7.260;2023-10-13T14:25:13;3.80;;;2.53;;
75499;SDS011;64076;51.466;7.260;2023-10-13T14:27:40;4.53;;;2.70;;
75499;SDS011;64076;51.466;7.260;2023-10-13T14:30:06;4.17;;;2.70;;
75499;SDS011;64076;51.466;7.260;2023-10-13T14:32:33;4.13;;;2.88;;
75499;SDS011;64076;51.466;7.260;2023-10-13T14:35:05;3.83;;;2.65;;
75499;SDS011;64076;51.466;7.260;2023-10-13T14:37:39;3.88;;;2.65;;
75499;SDS011;64076;51.466;7.260;2023-10-13T14:40:07;3.65;;;2.47;;
75499;SDS011;64076;51.466;7.260;2023-10-13T14:42:38;3.37;;;2.57;;
75499;SDS011;64076;51.466;7.260;2023-10-13T14:45:06;3.80;;;2.55;;
75499;SDS011;64076;51.466;7.260;2023-10-13T14:47:38;4.20;;;2.63;;
75499;SDS011;64076;51.466;7.260;2023-10-13T14:50:04;4.82;;;3.15;;
75499;SDS011;64076;51.466;7.260;2023-10-13T14:52:31;3.90;;;2.58;;
75499;SDS011;64076;51.466;7.260;2023-10-13T14:55:00;4.50;;;2.60;;
75499;SDS011;64076;51.466;7.260;2023-10-13T14:57:26;3.10;;;2.30;;
75499;SDS011;64076;51.466;7.260;2023-10-13T14:59:55;3.25;;;2.42;;
75499;SDS011;64076;51.466;7.260;2023-10-13T15:02:22;3.10;;;2.22;;
75499;SDS011;64076;51.466;7.260;2023-10-13T15:04:49;3.67;;;2.50;;
75499;SDS011;64076;51.466;7.260;2023-10-13T15:07:16;3.60;;;2.60;;
75499;SDS011;64076;51.466;7.260;2023-10-13T15:09:43;3.10;;;2.30;;
75499;SDS011;64076;51.466;7.260;2023-10-13T15:12:09;4.68;;;2.67;;
75499;SDS011;64076;51.466;7.260;2023-10-13T15:14:38;3.13;;;2.42;;
75499;SDS011;64076;51.466;7.260;2023-10-13T15:17:07;3.03;;;2.33;;
75499;SDS011;64076;51.466;7.260;2023-10-13T15:19:34;3.43;;;2.50;;
75499;SDS011;64076;51.466;7.260;2023-10-13T15:22:03;3.38;;;2.53;;
75499;SDS011;64076;51.466;7.260;2023-10-13T15:24:31;3.00;;;2.22;;
75499;SDS011;64076;51.466;7.260;2023-10-13T15:27:08;3.92;;;2.50;;
75499;SDS011;64076;51.466;7.260;2023-10-13T15:29:36;3.83;;;2.53;;
75499;SDS011;64076;51.466;7.260;2023-10-13T15:32:02;3.40;;;2.20;;
75499;SDS011;64076;51.466;7.260;2023-10-13T15:34:28;3.25;;;2.28;;
75499;SDS011;64076;51.466;7.260;2023-10-13T15:36:55;3.75;;;2.28;;
75499;SDS011;64076;51.466;7.260;2023-10-13T15:39:22;3.50;;;2.40;;
75499;SDS011;64076;51.466;7.260;2023-10-13T15:42:01;3.33;;;2.33;;
75499;SDS011;64076;51.466;7.260;2023-10-13T15:44:27;3.23;;;2.43;;